sensor_id;sensor_type;location;lat;lon;timestamp;temperature;humidity
43673;DHT22;41723;49.326;8.430;2022-09-09T00:03:27;18.50;99.90
43673;DHT22;41723;49.326;8.430;2022-09-09T00:06:08;18.40;99.90
43673;DHT22;41723;49.326;8.430;2022-09-09T00:08:42;18.30;99.90
43673;DHT22;41723;49.326;8.430;2022-09-09T00:11:11;18.30;99.90
43673;DHT22;41723;49.326;8.430;2022-09-09T00:13:39;18.30;99.90
43673;DHT22;41723;49.326;8.430;2022-09-09T00:21:26;18.20;99.90
43673;DHT22;41723;49.326;8.430;2022-09-09T00:23:58;18.10;99.90
43673;DHT22;41723;49.326;8.430;2022-09-09T00:26:32;18.20;99.90
43673;DHT22;41723;49.326;8.430;2022-09-09T00:31:34;18.30;99.90
43673;DHT22;41723;49.326;8.430;2022-09-09T00:34:03;18.30;99.90
43673;DHT22;41723;49.326;8.430;2022-09-09T00:36:30;18.40;99.90
43673;DHT22;41723;49.326;8.430;2022-09-09T00:38:59;18.40;99.90
43673;DHT22;41723;49.326;8.430;2022-09-09T00:44:00;18.30;99.90
43673;DHT22;41723;49.326;8.430;2022-09-09T00:46:41;18.30;99.90
43673;DHT22;41723;49.326;8.430;2022-09-09T00:49:14;18.20;99.90
43673;DHT22;41723;49.326;8.430;2022-09-09T01:02:13;18.00;99.90
43673;DHT22;41723;49.326;8.430;2022-09-09T01:04:42;18.00;99.90
43673;DHT22;41723;49.326;8.430;2022-09-09T01:07:12;17.90;99.90
43673;DHT22;41723;49.326;8.430;2022-09-09T01:17:15;17.90;99.90
43673;DHT22;41723;49.326;8.430;2022-09-09T01:19:55;18.00;99.90
43673;DHT22;41723;49.326;8.430;2022-09-09T01:22:29;17.90;99.90
43673;DHT22;41723;49.326;8.430;2022-09-09T01:28:16;18.00;99.90
43673;DHT22;41723;49.326;8.430;2022-09-09T01:30:42;18.00;99.90
43673;DHT22;41723;49.326;8.430;2022-09-09T01:33:14;18.00;99.90
43673;DHT22;41723;49.326;8.430;2022-09-09T01:35:49;18.10;99.90
43673;DHT22;41723;49.326;8.430;2022-09-09T01:38:22;18.10;99.90
43673;DHT22;41723;49.326;8.430;2022-09-09T01:40:50;18.10;99.90
43673;DHT22;41723;49.326;8.430;2022-09-09T01:43:21;18.10;99.90
43673;DHT22;41723;49.326;8.430;2022-09-09T01:45:49;18.10;99.90
43673;DHT22;41723;49.326;8.430;2022-09-09T01:48:16;18.10;99.90
43673;DHT22;41723;49.326;8.430;2022-09-09T01:50:52;18.10;99.90
43673;DHT22;41723;49.326;8.430;2022-09-09T01:53:18;18.10;99.90
43673;DHT22;41723;49.326;8.430;2022-09-09T01:56:02;18.10;99.90
43673;DHT22;41723;49.326;8.430;2022-09-09T02:03:47;18.10;99.90
43673;DHT22;41723;49.326;8.430;2022-09-09T02:08:49;18.10;99.90
43673;DHT22;41723;49.326;8.430;2022-09-09T02:11:16;18.10;99.90
43673;DHT22;41723;49.326;8.430;2022-09-09T02:13:56;18.10;99.90
43673;DHT22;41723;49.326;8.430;2022-09-09T02:16:24;18.10;99.90
43673;DHT22;41723;49.326;8.430;2022-09-09T02:18:55;18.10;99.90
43673;DHT22;41723;49.326;8.430;2022-09-09T02:21:35;18.10;99.90
43673;DHT22;41723;49.326;8.430;2022-09-09T02:24:03;18.00;99.90
43673;DHT22;41723;49.326;8.430;2022-09-09T02:26:31;18.00;99.90
43673;DHT22;41723;49.326;8.430;2022-09-09T02:29:04;18.00;99.90
43673;DHT22;41723;49.326;8.430;2022-09-09T02:31:30;18.00;99.90
43673;DHT22;41723;49.326;8.430;2022-09-09T02:34:03;17.90;99.90
43673;DHT22;41723;49.326;8.430;2022-09-09T02:36:29;17.90;99.90
43673;DHT22;41723;49.326;8.430;2022-09-09T02:38:56;17.90;99.90
43673;DHT22;41723;49.326;8.430;2022-09-09T02:41:26;17.90;99.90
43673;DHT22;41723;49.326;8.430;2022-09-09T02:43:54;17.80;99.90
43673;DHT22;41723;49.326;8.430;2022-09-09T02:49:15;17.70;99.90
43673;DHT22;41723;49.326;8.430;2022-09-09T02:54:28;17.70;99.90
43673;DHT22;41723;49.326;8.430;2022-09-09T02:57:01;17.70;99.90
43673;DHT22;41723;49.326;8.430;2022-09-09T02:59:33;17.70;99.90
43673;DHT22;41723;49.326;8.430;2022-09-09T03:01:59;17.70;99.90
43673;DHT22;41723;49.326;8.430;2022-09-09T03:04:26;17.70;99.90
43673;DHT22;41723;49.326;8.430;2022-09-09T03:06:52;17.70;99.90
43673;DHT22;41723;49.326;8.430;2022-09-09T03:09:19;17.60;99.90
43673;DHT22;41723;49.326;8.430;2022-09-09T03:11:45;17.50;99.90
43673;DHT22;41723;49.326;8.430;2022-09-09T03:14:13;17.60;99.90
43673;DHT22;41723;49.326;8.430;2022-09-09T03:16:39;17.60;99.90
43673;DHT22;41723;49.326;8.430;2022-09-09T03:19:06;17.60;99.90
43673;DHT22;41723;49.326;8.430;2022-09-09T03:21:32;17.60;99.90
43673;DHT22;41723;49.326;8.430;2022-09-09T03:23:58;17.60;99.90
43673;DHT22;41723;49.326;8.430;2022-09-09T03:26:24;17.60;99.90
43673;DHT22;41723;49.326;8.430;2022-09-09T03:28:49;17.60;99.90
43673;DHT22;41723;49.326;8.430;2022-09-09T03:31:18;17.50;99.90
43673;DHT22;41723;49.326;8.430;2022-09-09T03:33:44;17.50;99.90
43673;DHT22;41723;49.326;8.430;2022-09-09T03:36:13;17.50;99.90
43673;DHT22;41723;49.326;8.430;2022-09-09T03:38:39;17.40;99.90
43673;DHT22;41723;49.326;8.430;2022-09-09T03:41:06;17.40;99.90
43673;DHT22;41723;49.326;8.430;2022-09-09T03:43:33;17.40;99.90
43673;DHT22;41723;49.326;8.430;2022-09-09T03:45:59;17.40;99.90
43673;DHT22;41723;49.326;8.430;2022-09-09T03:48:26;17.40;99.90
43673;DHT22;41723;49.326;8.430;2022-09-09T03:50:53;17.40;99.90
43673;DHT22;41723;49.326;8.430;2022-09-09T03:53:20;17.40;99.90
43673;DHT22;41723;49.326;8.430;2022-09-09T03:55:46;17.40;99.90
43673;DHT22;41723;49.326;8.430;2022-09-09T03:58:13;17.40;99.90
43673;DHT22;41723;49.326;8.430;2022-09-09T04:00:39;17.40;99.90
43673;DHT22;41723;49.326;8.430;2022-09-09T04:03:10;17.40;99.90
43673;DHT22;41723;49.326;8.430;2022-09-09T04:05:37;17.30;99.90
43673;DHT22;41723;49.326;8.430;2022-09-09T04:08:08;17.30;99.90
43673;DHT22;41723;49.326;8.430;2022-09-09T04:10:34;17.30;99.90
43673;DHT22;41723;49.326;8.430;2022-09-09T04:13:03;17.50;99.90
43673;DHT22;41723;49.326;8.430;2022-09-09T04:15:29;17.40;99.90
43673;DHT22;41723;49.326;8.430;2022-09-09T04:17:55;17.50;99.90
43673;DHT22;41723;49.326;8.430;2022-09-09T04:20:21;17.50;99.90
43673;DHT22;41723;49.326;8.430;2022-09-09T04:22:47;17.50;99.90
43673;DHT22;41723;49.326;8.430;2022-09-09T04:25:13;17.40;99.90
43673;DHT22;41723;49.326;8.430;2022-09-09T04:27:39;17.50;99.90
43673;DHT22;41723;49.326;8.430;2022-09-09T04:30:05;17.50;99.90
43673;DHT22;41723;49.326;8.430;2022-09-09T04:32:33;17.50;99.90
43673;DHT22;41723;49.326;8.430;2022-09-09T04:37:59;17.40;99.90
43673;DHT22;41723;49.326;8.430;2022-09-09T04:40:30;17.30;99.90
43673;DHT22;41723;49.326;8.430;2022-09-09T04:43:00;17.30;99.90
43673;DHT22;41723;49.326;8.430;2022-09-09T04:45:26;17.30;99.90
43673;DHT22;41723;49.326;8.430;2022-09-09T04:47:52;17.30;99.90
43673;DHT22;41723;49.326;8.430;2022-09-09T04:50:19;17.30;99.90
43673;DHT22;41723;49.326;8.430;2022-09-09T04:52:46;17.30;99.90
43673;DHT22;41723;49.326;8.430;2022-09-09T04:55:12;17.30;99.90
43673;DHT22;41723;49.326;8.430;2022-09-09T04:57:39;17.50;99.90
43673;DHT22;41723;49.326;8.430;2022-09-09T05:00:05;17.50;99.90
43673;DHT22;41723;49.326;8.430;2022-09-09T05:02:36;17.40;99.90
43673;DHT22;41723;49.326;8.430;2022-09-09T05:05:03;17.40;99.90
43673;DHT22;41723;49.326;8.430;2022-09-09T05:07:29;17.40;99.90
43673;DHT22;41723;49.326;8.430;2022-09-09T05:09:56;17.40;99.90
43673;DHT22;41723;49.326;8.430;2022-09-09T05:12:23;17.50;99.90
43673;DHT22;41723;49.326;8.430;2022-09-09T05:14:51;17.40;99.90
43673;DHT22;41723;49.326;8.430;2022-09-09T05:17:17;17.40;99.90
43673;DHT22;41723;49.326;8.430;2022-09-09T05:19:43;17.40;99.90
43673;DHT22;41723;49.326;8.430;2022-09-09T05:22:09;17.40;99.90
43673;DHT22;41723;49.326;8.430;2022-09-09T05:24:42;17.40;99.90
43673;DHT22;41723;49.326;8.430;2022-09-09T05:27:08;17.40;99.90
43673;DHT22;41723;49.326;8.430;2022-09-09T05:29:37;17.40;99.90
43673;DHT22;41723;49.326;8.430;2022-09-09T05:32:05;17.30;99.90
43673;DHT22;41723;49.326;8.430;2022-09-09T05:34:31;17.30;99.90
43673;DHT22;41723;49.326;8.430;2022-09-09T05:36:57;17.40;99.90
43673;DHT22;41723;49.326;8.430;2022-09-09T05:39:24;17.40;99.90
43673;DHT22;41723;49.326;8.430;2022-09-09T05:41:50;17.40;99.90
43673;DHT22;41723;49.326;8.430;2022-09-09T05:44:16;17.40;99.90
43673;DHT22;41723;49.326;8.430;2022-09-09T05:46:43;17.40;99.90
43673;DHT22;41723;49.326;8.430;2022-09-09T05:49:11;17.30;99.90
43673;DHT22;41723;49.326;8.430;2022-09-09T05:51:38;17.40;99.90
43673;DHT22;41723;49.326;8.430;2022-09-09T05:54:09;17.30;99.90
43673;DHT22;41723;49.326;8.430;2022-09-09T05:56:39;17.30;99.90
43673;DHT22;41723;49.326;8.430;2022-09-09T05:59:06;17.40;99.90
43673;DHT22;41723;49.326;8.430;2022-09-09T06:01:33;17.40;99.90
43673;DHT22;41723;49.326;8.430;2022-09-09T06:04:00;17.40;99.90
43673;DHT22;41723;49.326;8.430;2022-09-09T06:06:27;17.40;99.90
43673;DHT22;41723;49.326;8.430;2022-09-09T06:08:57;17.50;99.90
43673;DHT22;41723;49.326;8.430;2022-09-09T06:11:25;17.50;99.90
43673;DHT22;41723;49.326;8.430;2022-09-09T06:13:52;17.50;99.90
43673;DHT22;41723;49.326;8.430;2022-09-09T06:16:20;17.50;99.90
43673;DHT22;41723;49.326;8.430;2022-09-09T06:18:46;17.60;99.90
43673;DHT22;41723;49.326;8.430;2022-09-09T06:21:18;17.60;99.90
43673;DHT22;41723;49.326;8.430;2022-09-09T06:23:44;17.50;99.90
43673;DHT22;41723;49.326;8.430;2022-09-09T06:26:11;17.50;99.90
43673;DHT22;41723;49.326;8.430;2022-09-09T06:28:38;17.60;99.90
43673;DHT22;41723;49.326;8.430;2022-09-09T06:31:05;17.60;99.90
43673;DHT22;41723;49.326;8.430;2022-09-09T06:33:31;17.60;99.90
43673;DHT22;41723;49.326;8.430;2022-09-09T06:36:02;17.60;99.90
43673;DHT22;41723;49.326;8.430;2022-09-09T06:38:29;17.60;99.90
43673;DHT22;41723;49.326;8.430;2022-09-09T06:40:56;17.60;99.90
43673;DHT22;41723;49.326;8.430;2022-09-09T06:43:23;17.60;99.90
43673;DHT22;41723;49.326;8.430;2022-09-09T06:46:09;17.70;99.90
43673;DHT22;41723;49.326;8.430;2022-09-09T06:48:35;17.70;99.90
43673;DHT22;41723;49.326;8.430;2022-09-09T06:53:28;17.70;99.90
43673;DHT22;41723;49.326;8.430;2022-09-09T06:55:53;17.70;99.90
43673;DHT22;41723;49.326;8.430;2022-09-09T06:58:20;17.70;99.90
43673;DHT22;41723;49.326;8.430;2022-09-09T07:00:47;17.70;99.90
43673;DHT22;41723;49.326;8.430;2022-09-09T07:03:13;17.80;99.90
43673;DHT22;41723;49.326;8.430;2022-09-09T07:05:39;17.80;99.90
43673;DHT22;41723;49.326;8.430;2022-09-09T07:08:05;17.90;99.90
43673;DHT22;41723;49.326;8.430;2022-09-09T07:10:31;18.00;99.90
43673;DHT22;41723;49.326;8.430;2022-09-09T07:12:57;18.10;99.90
43673;DHT22;41723;49.326;8.430;2022-09-09T07:15:24;18.10;99.90
43673;DHT22;41723;49.326;8.430;2022-09-09T07:17:50;18.20;99.90
43673;DHT22;41723;49.326;8.430;2022-09-09T07:20:16;18.20;99.90
43673;DHT22;41723;49.326;8.430;2022-09-09T07:22:43;18.30;99.90
43673;DHT22;41723;49.326;8.430;2022-09-09T07:25:09;18.30;99.90
43673;DHT22;41723;49.326;8.430;2022-09-09T07:27:36;18.30;99.90
43673;DHT22;41723;49.326;8.430;2022-09-09T07:30:01;18.40;99.90
43673;DHT22;41723;49.326;8.430;2022-09-09T07:32:31;18.40;99.90
43673;DHT22;41723;49.326;8.430;2022-09-09T07:34:57;18.40;99.90
43673;DHT22;41723;49.326;8.430;2022-09-09T07:37:24;18.40;99.90
43673;DHT22;41723;49.326;8.430;2022-09-09T07:39:51;18.40;99.90
43673;DHT22;41723;49.326;8.430;2022-09-09T07:42:17;18.50;99.90
43673;DHT22;41723;49.326;8.430;2022-09-09T07:44:44;18.50;99.90
43673;DHT22;41723;49.326;8.430;2022-09-09T07:47:13;18.60;99.90
43673;DHT22;41723;49.326;8.430;2022-09-09T07:49:43;18.60;99.90
43673;DHT22;41723;49.326;8.430;2022-09-09T07:52:09;18.70;99.90
43673;DHT22;41723;49.326;8.430;2022-09-09T07:54:37;18.80;99.90
43673;DHT22;41723;49.326;8.430;2022-09-09T07:57:05;18.80;99.90
43673;DHT22;41723;49.326;8.430;2022-09-09T07:59:32;19.30;99.90
43673;DHT22;41723;49.326;8.430;2022-09-09T08:01:59;19.30;99.90
43673;DHT22;41723;49.326;8.430;2022-09-09T08:04:27;19.40;99.90
43673;DHT22;41723;49.326;8.430;2022-09-09T08:06:55;19.40;99.90
43673;DHT22;41723;49.326;8.430;2022-09-09T08:09:23;19.60;99.90
43673;DHT22;41723;49.326;8.430;2022-09-09T08:11:56;19.60;99.90
43673;DHT22;41723;49.326;8.430;2022-09-09T08:14:22;19.60;99.90
43673;DHT22;41723;49.326;8.430;2022-09-09T08:16:49;19.60;99.90
43673;DHT22;41723;49.326;8.430;2022-09-09T08:19:18;19.60;99.90
43673;DHT22;41723;49.326;8.430;2022-09-09T08:21:45;19.60;99.90
43673;DHT22;41723;49.326;8.430;2022-09-09T08:24:11;19.60;99.90
43673;DHT22;41723;49.326;8.430;2022-09-09T08:26:38;19.70;99.90
43673;DHT22;41723;49.326;8.430;2022-09-09T08:29:06;19.60;99.90
43673;DHT22;41723;49.326;8.430;2022-09-09T08:31:33;19.70;99.90
43673;DHT22;41723;49.326;8.430;2022-09-09T08:33:59;19.70;99.90
43673;DHT22;41723;49.326;8.430;2022-09-09T08:36:27;19.60;99.90
43673;DHT22;41723;49.326;8.430;2022-09-09T08:38:54;19.50;99.90
43673;DHT22;41723;49.326;8.430;2022-09-09T08:43:58;19.50;99.90
43673;DHT22;41723;49.326;8.430;2022-09-09T08:46:27;19.50;99.90
43673;DHT22;41723;49.326;8.430;2022-09-09T08:49:08;19.70;99.90
43673;DHT22;41723;49.326;8.430;2022-09-09T08:51:36;19.70;99.90
43673;DHT22;41723;49.326;8.430;2022-09-09T08:54:03;19.80;99.90
43673;DHT22;41723;49.326;8.430;2022-09-09T08:56:31;19.80;99.90
43673;DHT22;41723;49.326;8.430;2022-09-09T08:58:59;20.00;99.90
43673;DHT22;41723;49.326;8.430;2022-09-09T09:11:53;20.10;99.70
43673;DHT22;41723;49.326;8.430;2022-09-09T09:14:23;20.10;99.60
43673;DHT22;41723;49.326;8.430;2022-09-09T09:19:20;20.10;99.50
43673;DHT22;41723;49.326;8.430;2022-09-09T09:21:59;20.00;99.70
43673;DHT22;41723;49.326;8.430;2022-09-09T09:26:59;20.10;99.90
43673;DHT22;41723;49.326;8.430;2022-09-09T09:29:29;20.10;99.80
43673;DHT22;41723;49.326;8.430;2022-09-09T09:31:56;20.00;99.70
43673;DHT22;41723;49.326;8.430;2022-09-09T09:34:25;20.00;99.80
43673;DHT22;41723;49.326;8.430;2022-09-09T09:36:53;20.10;99.60
43673;DHT22;41723;49.326;8.430;2022-09-09T09:39:26;20.30;99.20
43673;DHT22;41723;49.326;8.430;2022-09-09T09:41:54;20.30;99.30
43673;DHT22;41723;49.326;8.430;2022-09-09T09:44:30;20.20;99.50
43673;DHT22;41723;49.326;8.430;2022-09-09T09:47:21;20.10;99.90
43673;DHT22;41723;49.326;8.430;2022-09-09T09:49:58;19.90;99.90
43673;DHT22;41723;49.326;8.430;2022-09-09T09:52:30;19.80;99.90
43673;DHT22;41723;49.326;8.430;2022-09-09T09:55:02;19.80;99.90
43673;DHT22;41723;49.326;8.430;2022-09-09T09:57:31;19.60;99.90
43673;DHT22;41723;49.326;8.430;2022-09-09T10:00:04;19.50;99.90
43673;DHT22;41723;49.326;8.430;2022-09-09T10:02:40;19.60;99.90
43673;DHT22;41723;49.326;8.430;2022-09-09T10:05:15;19.80;99.90
43673;DHT22;41723;49.326;8.430;2022-09-09T10:07:44;20.00;99.90
43673;DHT22;41723;49.326;8.430;2022-09-09T10:10:20;20.10;99.90
43673;DHT22;41723;49.326;8.430;2022-09-09T10:13:07;20.20;99.90
43673;DHT22;41723;49.326;8.430;2022-09-09T10:23:29;20.30;99.10
43673;DHT22;41723;49.326;8.430;2022-09-09T10:36:55;20.80;98.50
43673;DHT22;41723;49.326;8.430;2022-09-09T10:39:36;20.60;98.10
43673;DHT22;41723;49.326;8.430;2022-09-09T10:42:06;20.70;98.40
43673;DHT22;41723;49.326;8.430;2022-09-09T10:52:28;21.10;96.90
43673;DHT22;41723;49.326;8.430;2022-09-09T10:55:00;21.20;97.20
43673;DHT22;41723;49.326;8.430;2022-09-09T11:00:23;21.40;96.30
43673;DHT22;41723;49.326;8.430;2022-09-09T11:02:54;21.20;96.40
43673;DHT22;41723;49.326;8.430;2022-09-09T11:05:26;21.20;96.70
43673;DHT22;41723;49.326;8.430;2022-09-09T11:08:04;21.00;97.10
43673;DHT22;41723;49.326;8.430;2022-09-09T11:10:37;21.10;97.00
43673;DHT22;41723;49.326;8.430;2022-09-09T11:13:08;21.20;96.90
43673;DHT22;41723;49.326;8.430;2022-09-09T11:15:36;21.00;96.80
43673;DHT22;41723;49.326;8.430;2022-09-09T11:18:04;21.10;96.90
43673;DHT22;41723;49.326;8.430;2022-09-09T11:20:32;21.10;97.20
43673;DHT22;41723;49.326;8.430;2022-09-09T11:22:59;21.10;97.20
43673;DHT22;41723;49.326;8.430;2022-09-09T11:25:37;21.40;97.30
43673;DHT22;41723;49.326;8.430;2022-09-09T11:33:39;22.20;96.00
43673;DHT22;41723;49.326;8.430;2022-09-09T11:41:11;22.10;94.90
43673;DHT22;41723;49.326;8.430;2022-09-09T11:43:44;22.10;95.20
43673;DHT22;41723;49.326;8.430;2022-09-09T11:46:12;22.10;94.90
43673;DHT22;41723;49.326;8.430;2022-09-09T11:51:07;22.80;94.10
43673;DHT22;41723;49.326;8.430;2022-09-09T11:53:34;23.10;93.90
43673;DHT22;41723;49.326;8.430;2022-09-09T11:56:00;22.60;94.10
43673;DHT22;41723;49.326;8.430;2022-09-09T11:58:27;22.60;94.30
43673;DHT22;41723;49.326;8.430;2022-09-09T12:00:57;22.30;94.60
43673;DHT22;41723;49.326;8.430;2022-09-09T12:05:58;21.80;94.60
43673;DHT22;41723;49.326;8.430;2022-09-09T12:08:26;21.90;95.20
43673;DHT22;41723;49.326;8.430;2022-09-09T12:10:57;21.70;94.90
43673;DHT22;41723;49.326;8.430;2022-09-09T12:13:24;21.70;94.90
43673;DHT22;41723;49.326;8.430;2022-09-09T12:15:51;21.90;95.40
43673;DHT22;41723;49.326;8.430;2022-09-09T12:18:25;21.80;94.60
43673;DHT22;41723;49.326;8.430;2022-09-09T12:20:54;21.60;95.00
43673;DHT22;41723;49.326;8.430;2022-09-09T12:23:24;21.70;94.70
43673;DHT22;41723;49.326;8.430;2022-09-09T12:28:43;22.40;94.80
43673;DHT22;41723;49.326;8.430;2022-09-09T12:31:12;22.50;94.70
43673;DHT22;41723;49.326;8.430;2022-09-09T12:33:44;22.70;94.50
43673;DHT22;41723;49.326;8.430;2022-09-09T12:36:18;22.60;94.60
43673;DHT22;41723;49.326;8.430;2022-09-09T12:38:44;22.50;94.90
43673;DHT22;41723;49.326;8.430;2022-09-09T12:41:24;22.70;94.20
43673;DHT22;41723;49.326;8.430;2022-09-09T12:43:50;22.60;94.00
43673;DHT22;41723;49.326;8.430;2022-09-09T12:46:33;22.70;94.20
43673;DHT22;41723;49.326;8.430;2022-09-09T12:49:02;22.60;94.80
43673;DHT22;41723;49.326;8.430;2022-09-09T12:51:28;22.30;94.80
43673;DHT22;41723;49.326;8.430;2022-09-09T12:53:54;22.00;94.60
43673;DHT22;41723;49.326;8.430;2022-09-09T12:56:24;22.00;95.40
43673;DHT22;41723;49.326;8.430;2022-09-09T12:58:52;21.80;95.20
43673;DHT22;41723;49.326;8.430;2022-09-09T13:01:28;21.60;95.40
43673;DHT22;41723;49.326;8.430;2022-09-09T13:03:55;21.40;95.80
43673;DHT22;41723;49.326;8.430;2022-09-09T13:06:25;21.10;96.70
43673;DHT22;41723;49.326;8.430;2022-09-09T13:08:51;21.00;97.60
43673;DHT22;41723;49.326;8.430;2022-09-09T13:11:19;20.80;98.50
43673;DHT22;41723;49.326;8.430;2022-09-09T13:13:51;20.50;99.30
43673;DHT22;41723;49.326;8.430;2022-09-09T13:16:28;20.30;99.90
43673;DHT22;41723;49.326;8.430;2022-09-09T13:19:07;20.00;99.90
43673;DHT22;41723;49.326;8.430;2022-09-09T13:21:39;19.80;99.90
43673;DHT22;41723;49.326;8.430;2022-09-09T13:24:06;19.50;99.90
43673;DHT22;41723;49.326;8.430;2022-09-09T13:26:33;19.30;99.90
43673;DHT22;41723;49.326;8.430;2022-09-09T13:29:18;19.20;99.90
43673;DHT22;41723;49.326;8.430;2022-09-09T13:31:44;19.20;99.90
43673;DHT22;41723;49.326;8.430;2022-09-09T13:34:14;19.40;99.90
43673;DHT22;41723;49.326;8.430;2022-09-09T13:36:39;19.40;99.90
43673;DHT22;41723;49.326;8.430;2022-09-09T13:39:14;19.50;99.90
43673;DHT22;41723;49.326;8.430;2022-09-09T13:41:42;19.50;99.90
43673;DHT22;41723;49.326;8.430;2022-09-09T13:47:04;19.80;99.90
43673;DHT22;41723;49.326;8.430;2022-09-09T13:49:30;20.20;99.50
43673;DHT22;41723;49.326;8.430;2022-09-09T13:54:33;20.60;99.50
43673;DHT22;41723;49.326;8.430;2022-09-09T13:56:58;21.00;99.00
43673;DHT22;41723;49.326;8.430;2022-09-09T13:59:24;21.10;98.60
43673;DHT22;41723;49.326;8.430;2022-09-09T14:01:51;21.30;98.00
43673;DHT22;41723;49.326;8.430;2022-09-09T14:04:17;21.50;97.60
43673;DHT22;41723;49.326;8.430;2022-09-09T14:06:43;21.60;97.80
43673;DHT22;41723;49.326;8.430;2022-09-09T14:09:10;21.90;97.40
43673;DHT22;41723;49.326;8.430;2022-09-09T14:11:40;22.00;97.00
43673;DHT22;41723;49.326;8.430;2022-09-09T14:14:06;22.10;96.60
43673;DHT22;41723;49.326;8.430;2022-09-09T14:16:31;22.10;95.90
43673;DHT22;41723;49.326;8.430;2022-09-09T14:18:58;22.20;96.20
43673;DHT22;41723;49.326;8.430;2022-09-09T14:21:25;22.40;96.00
43673;DHT22;41723;49.326;8.430;2022-09-09T14:23:50;22.40;96.20
43673;DHT22;41723;49.326;8.430;2022-09-09T14:26:19;22.50;95.80
43673;DHT22;41723;49.326;8.430;2022-09-09T14:28:46;22.50;96.30
43673;DHT22;41723;49.326;8.430;2022-09-09T14:31:12;22.30;95.40
43673;DHT22;41723;49.326;8.430;2022-09-09T14:33:38;22.30;95.60
43673;DHT22;41723;49.326;8.430;2022-09-09T14:36:04;22.10;95.40
43673;DHT22;41723;49.326;8.430;2022-09-09T14:38:34;22.00;95.60
43673;DHT22;41723;49.326;8.430;2022-09-09T14:41:04;21.80;95.20
43673;DHT22;41723;49.326;8.430;2022-09-09T14:43:29;21.80;95.70
43673;DHT22;41723;49.326;8.430;2022-09-09T14:46:04;21.70;95.40
43673;DHT22;41723;49.326;8.430;2022-09-09T14:48:31;21.60;96.10
43673;DHT22;41723;49.326;8.430;2022-09-09T14:50:56;21.60;96.40
43673;DHT22;41723;49.326;8.430;2022-09-09T14:53:22;21.50;96.50
43673;DHT22;41723;49.326;8.430;2022-09-09T14:55:47;21.50;96.80
43673;DHT22;41723;49.326;8.430;2022-09-09T14:58:13;21.40;97.40
43673;DHT22;41723;49.326;8.430;2022-09-09T15:00:39;21.40;98.00
43673;DHT22;41723;49.326;8.430;2022-09-09T15:03:04;21.40;98.30
43673;DHT22;41723;49.326;8.430;2022-09-09T15:05:30;21.20;98.50
43673;DHT22;41723;49.326;8.430;2022-09-09T15:07:57;21.20;97.40
43673;DHT22;41723;49.326;8.430;2022-09-09T15:10:23;21.20;97.10
43673;DHT22;41723;49.326;8.430;2022-09-09T15:12:49;21.20;96.60
43673;DHT22;41723;49.326;8.430;2022-09-09T15:15:15;20.90;96.80
43673;DHT22;41723;49.326;8.430;2022-09-09T15:17:40;20.60;97.30
43673;DHT22;41723;49.326;8.430;2022-09-09T15:20:06;20.40;98.20
43673;DHT22;41723;49.326;8.430;2022-09-09T15:22:32;20.20;99.30
43673;DHT22;41723;49.326;8.430;2022-09-09T15:24:59;19.80;99.30
43673;DHT22;41723;49.326;8.430;2022-09-09T15:27:24;19.60;99.90
43673;DHT22;41723;49.326;8.430;2022-09-09T15:29:50;19.70;99.90
43673;DHT22;41723;49.326;8.430;2022-09-09T15:32:17;19.80;99.30
43673;DHT22;41723;49.326;8.430;2022-09-09T15:34:42;19.90;98.70
43673;DHT22;41723;49.326;8.430;2022-09-09T15:37:09;19.90;99.60
43673;DHT22;41723;49.326;8.430;2022-09-09T15:39:36;20.00;98.70
43673;DHT22;41723;49.326;8.430;2022-09-09T15:42:01;20.20;98.20
43673;DHT22;41723;49.326;8.430;2022-09-09T15:44:27;20.10;98.30
43673;DHT22;41723;49.326;8.430;2022-09-09T15:46:53;20.10;98.00
43673;DHT22;41723;49.326;8.430;2022-09-09T15:49:22;20.20;97.80
43673;DHT22;41723;49.326;8.430;2022-09-09T15:51:57;20.20;97.30
43673;DHT22;41723;49.326;8.430;2022-09-09T15:54:24;20.20;97.40
43673;DHT22;41723;49.326;8.430;2022-09-09T15:56:51;20.30;97.40
43673;DHT22;41723;49.326;8.430;2022-09-09T15:59:17;20.30;98.10
43673;DHT22;41723;49.326;8.430;2022-09-09T16:01:43;20.40;98.40
43673;DHT22;41723;49.326;8.430;2022-09-09T16:04:09;20.40;97.60
43673;DHT22;41723;49.326;8.430;2022-09-09T16:06:35;20.40;98.60
43673;DHT22;41723;49.326;8.430;2022-09-09T16:09:02;20.40;98.40
43673;DHT22;41723;49.326;8.430;2022-09-09T16:11:30;20.40;98.20
43673;DHT22;41723;49.326;8.430;2022-09-09T16:13:56;20.40;98.30
43673;DHT22;41723;49.326;8.430;2022-09-09T16:16:23;20.50;98.60
43673;DHT22;41723;49.326;8.430;2022-09-09T16:18:50;20.50;98.30
43673;DHT22;41723;49.326;8.430;2022-09-09T16:21:20;20.50;98.10
43673;DHT22;41723;49.326;8.430;2022-09-09T16:23:47;20.60;98.80
43673;DHT22;41723;49.326;8.430;2022-09-09T16:26:14;20.50;98.40
43673;DHT22;41723;49.326;8.430;2022-09-09T16:28:40;20.50;98.10
43673;DHT22;41723;49.326;8.430;2022-09-09T16:31:06;20.50;99.00
43673;DHT22;41723;49.326;8.430;2022-09-09T16:33:32;20.50;98.60
43673;DHT22;41723;49.326;8.430;2022-09-09T16:35:58;20.50;99.10
43673;DHT22;41723;49.326;8.430;2022-09-09T16:38:29;20.40;99.00
43673;DHT22;41723;49.326;8.430;2022-09-09T16:40:59;20.40;99.30
43673;DHT22;41723;49.326;8.430;2022-09-09T16:43:24;20.40;99.30
43673;DHT22;41723;49.326;8.430;2022-09-09T16:45:50;20.40;99.60
43673;DHT22;41723;49.326;8.430;2022-09-09T16:48:16;20.30;99.80
43673;DHT22;41723;49.326;8.430;2022-09-09T16:50:41;20.30;99.90
43673;DHT22;41723;49.326;8.430;2022-09-09T16:53:07;20.40;99.90
43673;DHT22;41723;49.326;8.430;2022-09-09T16:55:37;20.30;99.90
43673;DHT22;41723;49.326;8.430;2022-09-09T16:58:04;20.40;99.90
43673;DHT22;41723;49.326;8.430;2022-09-09T17:00:29;20.30;99.90
43673;DHT22;41723;49.326;8.430;2022-09-09T17:02:55;20.30;99.90
43673;DHT22;41723;49.326;8.430;2022-09-09T17:05:20;20.10;99.90
43673;DHT22;41723;49.326;8.430;2022-09-09T17:07:48;20.00;99.60
43673;DHT22;41723;49.326;8.430;2022-09-09T17:10:14;19.90;99.40
43673;DHT22;41723;49.326;8.430;2022-09-09T17:12:39;19.90;99.30
43673;DHT22;41723;49.326;8.430;2022-09-09T17:15:06;19.90;99.30
43673;DHT22;41723;49.326;8.430;2022-09-09T17:17:32;19.80;99.30
43673;DHT22;41723;49.326;8.430;2022-09-09T17:19:57;19.70;99.30
43673;DHT22;41723;49.326;8.430;2022-09-09T17:22:23;19.60;99.30
43673;DHT22;41723;49.326;8.430;2022-09-09T17:24:49;19.60;99.40
43673;DHT22;41723;49.326;8.430;2022-09-09T17:27:14;19.40;99.60
43673;DHT22;41723;49.326;8.430;2022-09-09T17:29:40;19.40;99.80
43673;DHT22;41723;49.326;8.430;2022-09-09T17:32:05;19.30;99.90
43673;DHT22;41723;49.326;8.430;2022-09-09T17:34:32;19.20;99.90
43673;DHT22;41723;49.326;8.430;2022-09-09T17:36:58;19.20;99.90
43673;DHT22;41723;49.326;8.430;2022-09-09T17:39:24;19.20;99.90
43673;DHT22;41723;49.326;8.430;2022-09-09T17:41:49;19.20;99.90